createdAt,value
2018-09-04T00:00:11.288Z,80.77
2018-09-04T00:02:39.799Z,82.47
2018-09-04T00:05:08.257Z,88.63
2018-09-04T00:07:36.702Z,91.70
2018-09-04T00:10:06.173Z,103.33
2018-09-04T00:12:34.722Z,93.03
2018-09-04T00:15:03.203Z,92.87
2018-09-04T00:17:31.682Z,91.80
2018-09-04T00:20:00.170Z,94.27
2018-09-04T00:22:28.667Z,86.93
2018-09-04T00:24:57.112Z,93.10
2018-09-04T00:27:25.549Z,92.73
2018-09-04T00:29:53.982Z,90.27
2018-09-04T00:32:22.570Z,116.20
2018-09-04T00:34:51.018Z,95.90
2018-09-04T00:37:19.522Z,89.27
2018-09-04T00:39:48.520Z,97.67
2018-09-04T00:42:16.968Z,98.13
2018-09-04T00:44:45.454Z,98.37
2018-09-04T00:47:13.913Z,99.63
2018-09-04T00:49:42.353Z,116.97
2018-09-04T00:52:10.789Z,101.57
2018-09-04T00:54:39.342Z,123.83
2018-09-04T00:57:07.834Z,126.87
2018-09-04T00:59:36.271Z,101.93
2018-09-04T01:02:04.736Z,117.13
2018-09-04T01:04:33.314Z,121.93
2018-09-04T01:07:01.825Z,112.27
2018-09-04T01:09:30.831Z,113.73
2018-09-04T01:11:59.262Z,130.10
2018-09-04T01:14:27.837Z,131.13
2018-09-04T01:16:56.258Z,135.57
2018-09-04T01:19:24.681Z,134.80
2018-09-04T01:21:53.118Z,145.60
2018-09-04T01:24:21.679Z,152.93
2018-09-04T01:26:50.109Z,167.20
2018-09-04T01:29:18.582Z,162.73
2018-09-04T01:31:47.027Z,177.10
2018-09-04T01:34:15.549Z,167.97
2018-09-04T01:36:43.975Z,169.97
2018-09-04T01:39:12.426Z,178.53
2018-09-04T01:41:40.882Z,189.53
2018-09-04T01:44:09.437Z,168.27
2018-09-04T01:46:37.895Z,190.77
2018-09-04T01:49:06.389Z,203.10
2018-09-04T01:51:34.822Z,195.40
2018-09-04T01:54:03.332Z,184.27
2018-09-04T01:56:31.785Z,204.60
2018-09-04T01:59:00.266Z,202.50
2018-09-04T02:01:28.764Z,190.93
2018-09-04T02:03:57.279Z,221.77
2018-09-04T02:06:25.801Z,218.03
2018-09-04T02:08:54.241Z,220.60
2018-09-04T02:11:22.697Z,206.30
2018-09-04T02:13:51.226Z,218.10
2018-09-04T02:16:19.744Z,207.33
2018-09-04T02:18:48.244Z,220.20
2018-09-04T02:21:16.710Z,229.30
2018-09-04T02:23:45.196Z,226.00
2018-09-04T02:26:13.666Z,243.60
2018-09-04T02:28:42.134Z,234.97
2018-09-04T02:31:10.595Z,217.27
2018-09-04T02:33:39.150Z,207.93
2018-09-04T02:36:07.598Z,199.23
2018-09-04T02:38:36.049Z,202.70
2018-09-04T02:41:04.539Z,240.37
2018-09-04T02:43:33.044Z,207.63
2018-09-04T02:46:01.503Z,190.13
2018-09-04T02:48:30.044Z,196.07
2018-09-04T02:50:58.531Z,204.07
2018-09-04T02:53:26.986Z,188.63
2018-09-04T02:55:55.428Z,181.73
2018-09-04T02:58:23.929Z,229.80
2018-09-04T03:00:52.378Z,202.23
2018-09-04T03:03:20.934Z,217.60
2018-09-04T03:05:49.357Z,196.97
2018-09-04T03:08:17.807Z,190.63
2018-09-04T03:10:46.266Z,212.80
2018-09-04T03:13:14.781Z,195.10
2018-09-04T03:15:43.192Z,219.30
2018-09-04T03:18:11.621Z,206.27
2018-09-04T03:20:40.075Z,193.83
2018-09-04T03:23:08.741Z,237.30
2018-09-04T03:25:37.113Z,200.70
2018-09-04T03:28:05.583Z,197.73
2018-09-04T03:30:34.012Z,183.33
2018-09-04T03:33:02.530Z,187.03
2018-09-04T03:35:30.996Z,197.90
2018-09-04T03:37:59.420Z,183.67
2018-09-04T03:40:27.862Z,216.17
2018-09-04T03:42:56.486Z,186.17
2018-09-04T03:45:24.991Z,197.13
2018-09-04T03:47:53.423Z,201.07
2018-09-04T03:50:21.918Z,195.23
2018-09-04T03:52:50.455Z,205.57
2018-09-04T03:55:18.911Z,197.00
2018-09-04T03:57:47.349Z,201.80
2018-09-04T04:00:15.811Z,196.23
2018-09-04T04:02:44.374Z,206.13
2018-09-04T04:05:12.832Z,172.90
2018-09-04T04:07:41.298Z,179.17
2018-09-04T04:10:09.719Z,186.87
2018-09-04T04:12:38.240Z,192.67
2018-09-04T04:15:06.789Z,185.17
2018-09-04T04:17:35.261Z,179.03
2018-09-04T04:20:10.557Z,200.97
2018-09-04T04:22:39.090Z,157.87
2018-09-04T04:25:07.527Z,160.33
2018-09-04T04:27:36.026Z,150.17
2018-09-04T04:30:04.943Z,155.97
2018-09-04T04:32:33.461Z,141.57
2018-09-04T04:35:02.021Z,141.97
2018-09-04T04:37:30.461Z,146.27
2018-09-04T04:39:58.945Z,152.23
2018-09-04T04:42:27.458Z,144.10
2018-09-04T04:44:55.878Z,136.83
2018-09-04T04:47:29.722Z,141.63
2018-09-04T04:49:58.494Z,136.23
2018-09-04T04:52:27.253Z,136.73
2018-09-04T04:54:55.704Z,156.57
2018-09-04T04:57:24.147Z,141.63
2018-09-04T04:59:52.850Z,132.57
2018-09-04T05:02:21.375Z,129.60
2018-09-04T05:04:49.836Z,139.17
2018-09-04T05:07:18.296Z,136.70
2018-09-04T05:09:46.791Z,133.80
2018-09-04T05:12:15.286Z,138.03
2018-09-04T05:14:43.731Z,159.23
2018-09-04T05:17:12.219Z,135.87
2018-09-04T05:19:40.672Z,118.73
2018-09-04T05:22:09.123Z,120.10
2018-09-04T05:24:37.631Z,103.93
2018-09-04T05:27:06.110Z,108.37
2018-09-04T05:29:34.563Z,116.37
2018-09-04T05:32:15.714Z,104.63
2018-09-04T05:34:44.240Z,106.30
2018-09-04T05:37:12.664Z,110.10
2018-09-04T05:39:41.157Z,105.80
2018-09-04T05:42:14.870Z,92.53
2018-09-04T05:44:43.387Z,92.77
2018-09-04T05:47:11.923Z,102.77
2018-09-04T05:49:40.425Z,113.30
2018-09-04T05:52:08.947Z,110.73
2018-09-04T05:54:38.429Z,117.30
2018-09-04T05:57:07.039Z,104.57
2018-09-04T05:59:35.530Z,118.90
2018-09-04T06:02:04.035Z,109.57
2018-09-04T06:04:32.547Z,120.53
2018-09-04T06:07:00.979Z,113.73
2018-09-04T06:09:29.537Z,108.70
2018-09-04T06:11:58.006Z,121.80
2018-09-04T06:14:26.466Z,111.77
2018-09-04T06:16:54.927Z,107.43
2018-09-04T06:19:23.361Z,103.43
2018-09-04T06:21:51.811Z,114.30
2018-09-04T06:24:20.330Z,120.47
2018-09-04T06:26:48.831Z,118.37
2018-09-04T06:29:17.278Z,123.97
2018-09-04T06:31:45.747Z,136.07
2018-09-04T06:34:14.411Z,127.73
2018-09-04T06:36:42.998Z,123.77
2018-09-04T06:39:11.850Z,139.67
2018-09-04T06:41:40.339Z,149.53
2018-09-04T06:44:08.871Z,128.50
2018-09-04T06:46:37.376Z,179.00
2018-09-04T06:49:05.909Z,175.33
2018-09-04T06:51:34.371Z,173.43
2018-09-04T06:54:02.919Z,168.43
2018-09-04T06:56:31.435Z,167.17
2018-09-04T06:58:59.947Z,199.93
2018-09-04T07:01:28.393Z,201.47
2018-09-04T07:03:56.950Z,174.87
2018-09-04T07:06:25.428Z,174.83
2018-09-04T07:08:53.867Z,167.87
2018-09-04T07:11:22.337Z,162.73
2018-09-04T07:13:50.863Z,156.13
2018-09-04T07:16:19.307Z,157.47
2018-09-04T07:18:47.770Z,146.63
2018-09-04T07:21:16.191Z,141.63
2018-09-04T07:23:44.712Z,145.97
2018-09-04T07:26:13.199Z,150.30
2018-09-04T07:28:41.673Z,118.50
2018-09-04T07:31:10.154Z,128.93
2018-09-04T07:33:38.753Z,123.33
2018-09-04T07:36:07.230Z,128.23
2018-09-04T07:38:35.701Z,124.90
2018-09-04T07:41:04.192Z,100.80
2018-09-04T07:43:32.662Z,109.40
2018-09-04T07:46:01.133Z,107.03
2018-09-04T07:48:29.606Z,112.03
2018-09-04T07:50:58.075Z,105.33
2018-09-04T07:53:26.575Z,112.10
2018-09-04T07:55:55.006Z,105.67
2018-09-04T07:58:23.452Z,102.93
2018-09-04T08:00:51.959Z,90.67
2018-09-04T08:03:20.477Z,100.80
2018-09-04T08:05:48.942Z,81.40
2018-09-04T08:08:17.389Z,93.90
2018-09-04T08:10:45.880Z,89.13
2018-09-04T08:13:14.459Z,84.33
2018-09-04T08:15:42.955Z,79.13
2018-09-04T08:18:11.459Z,78.33
2018-09-04T08:20:39.979Z,68.20
2018-09-04T08:23:08.387Z,80.00
2018-09-04T08:25:36.858Z,77.13
2018-09-04T08:28:05.309Z,80.90
2018-09-04T08:30:33.762Z,82.63
2018-09-04T08:33:02.261Z,79.53
2018-09-04T08:35:30.721Z,79.57
2018-09-04T08:37:59.205Z,89.40
2018-09-04T08:40:28.498Z,69.23
2018-09-04T08:42:57.035Z,83.63
2018-09-04T08:45:25.514Z,87.00
2018-09-04T08:47:54.113Z,79.57
2018-09-04T08:50:22.544Z,74.87
2018-09-04T08:52:51.059Z,82.57
2018-09-04T08:55:19.553Z,88.80
2018-09-04T08:57:48.046Z,87.90
2018-09-04T09:00:16.510Z,93.27
2018-09-04T09:02:44.996Z,91.93
2018-09-04T09:05:13.453Z,85.27
2018-09-04T09:07:41.924Z,89.97
2018-09-04T09:10:10.512Z,90.87
2018-09-04T09:12:38.910Z,92.67
2018-09-04T09:15:07.418Z,86.43
2018-09-04T09:17:35.890Z,94.07
2018-09-04T09:20:04.334Z,85.93
2018-09-04T09:22:32.903Z,77.20
2018-09-04T09:25:01.357Z,81.80
2018-09-04T09:27:29.883Z,74.27
2018-09-04T09:29:58.376Z,82.03
2018-09-04T09:32:26.905Z,83.50
2018-09-04T09:34:55.469Z,75.17
2018-09-04T09:37:23.921Z,76.57
2018-09-04T09:39:52.381Z,76.70
2018-09-04T09:42:20.936Z,72.43
2018-09-04T09:44:49.390Z,74.03
2018-09-04T09:47:17.825Z,68.87
2018-09-04T09:49:46.285Z,76.07
2018-09-04T09:52:14.727Z,96.23
2018-09-04T09:54:43.215Z,64.87
2018-09-04T09:57:11.714Z,62.37
2018-09-04T09:59:40.211Z,68.77
2018-09-04T10:02:08.728Z,64.23
2018-09-04T10:04:37.171Z,72.87
2018-09-04T10:07:05.729Z,61.87
2018-09-04T10:09:34.234Z,66.40
2018-09-04T10:12:02.714Z,60.23
2018-09-04T10:14:31.232Z,65.57
2018-09-04T10:17:00.145Z,65.23
2018-09-04T10:19:28.658Z,59.93
2018-09-04T10:21:57.138Z,61.07
2018-09-04T10:24:25.665Z,60.60
2018-09-04T10:26:54.219Z,56.10
2018-09-04T10:29:22.731Z,58.23
2018-09-04T10:31:51.220Z,53.63
2018-09-04T10:34:19.761Z,56.30
2018-09-04T10:36:48.249Z,51.83
2018-09-04T10:39:22.046Z,54.90
2018-09-04T10:41:50.487Z,54.27
2018-09-04T10:44:19.043Z,53.33
2018-09-04T10:46:47.490Z,47.43
2018-09-04T10:49:15.957Z,48.73
2018-09-04T10:51:45.022Z,50.63
2018-09-04T10:54:13.601Z,52.20
2018-09-04T10:56:42.166Z,47.87
2018-09-04T10:59:10.636Z,49.53
2018-09-04T11:01:39.115Z,55.93
2018-09-04T11:04:07.596Z,48.47
2018-09-04T11:06:36.033Z,52.57
2018-09-04T11:09:08.773Z,44.63
2018-09-04T11:11:37.613Z,49.37
2018-09-04T11:14:06.084Z,46.07
2018-09-04T11:16:34.608Z,45.07
2018-09-04T11:19:03.053Z,47.90
2018-09-04T11:21:31.572Z,48.83
2018-09-04T11:24:00.069Z,48.53
2018-09-04T11:26:28.558Z,48.27
2018-09-04T11:29:00.047Z,51.47
2018-09-04T11:31:28.474Z,47.23
2018-09-04T11:33:56.942Z,41.83
2018-09-04T11:36:25.423Z,46.13
2018-09-04T11:38:53.875Z,51.23
2018-09-04T11:41:22.367Z,44.60
2018-09-04T11:43:50.921Z,46.60
2018-09-04T11:46:19.366Z,53.53
2018-09-04T11:48:47.797Z,49.50
2018-09-04T11:51:16.287Z,49.63
2018-09-04T11:53:44.790Z,53.67
2018-09-04T11:56:17.460Z,50.20
2018-09-04T11:58:45.935Z,48.33
2018-09-04T12:01:15.775Z,51.23
2018-09-04T12:03:44.280Z,53.33
2018-09-04T12:06:12.758Z,54.60
2018-09-04T12:08:41.224Z,58.23
2018-09-04T12:11:09.675Z,54.90
2018-09-04T12:13:38.257Z,49.73
2018-09-04T12:16:06.707Z,53.07
2018-09-04T12:18:35.151Z,55.53
2018-09-04T12:21:05.311Z,46.50
2018-09-04T12:23:33.624Z,55.60
2018-09-04T12:26:03.330Z,55.17
2018-09-04T12:28:31.798Z,52.83
2018-09-04T12:31:00.648Z,56.77
2018-09-04T12:33:29.310Z,52.27
2018-09-04T12:35:57.791Z,54.90
2018-09-04T12:38:27.906Z,50.57
2018-09-04T12:40:56.394Z,52.23
2018-09-04T12:43:24.958Z,48.03
2018-09-04T12:45:54.633Z,48.60
2018-09-04T12:48:28.490Z,47.67
2018-09-04T12:50:57.937Z,57.23
2018-09-04T12:53:27.346Z,51.30
2018-09-04T12:55:56.128Z,44.13
2018-09-04T12:58:24.613Z,45.67
2018-09-04T13:00:54.129Z,40.57
2018-09-04T13:03:24.821Z,39.13
2018-09-04T13:05:53.391Z,31.33
2018-09-04T13:08:23.311Z,37.30
2018-09-04T13:10:51.801Z,36.17
2018-09-04T13:13:20.267Z,39.23
2018-09-04T13:15:50.686Z,40.80
2018-09-04T13:18:19.214Z,35.37
2018-09-04T13:20:47.687Z,34.83
2018-09-04T13:23:16.164Z,38.47
2018-09-04T13:25:44.748Z,32.83
2018-09-04T13:28:13.283Z,32.30
2018-09-04T13:30:41.970Z,32.10
2018-09-04T13:33:10.644Z,30.60
2018-09-04T13:35:39.114Z,34.73
2018-09-04T13:38:07.826Z,39.80
2018-09-04T13:40:36.296Z,32.30
2018-09-04T13:43:04.927Z,36.97
2018-09-04T13:45:33.411Z,33.83
2018-09-04T13:48:02.012Z,32.70
2018-09-04T13:50:30.611Z,30.07
2018-09-04T13:52:59.218Z,28.70
2018-09-04T13:55:27.707Z,34.57
2018-09-04T13:57:56.205Z,37.23
2018-09-04T14:00:25.662Z,33.63
2018-09-04T14:02:54.307Z,31.90
2018-09-04T14:05:22.882Z,33.20
2018-09-04T14:07:51.365Z,32.37
2018-09-04T14:10:19.872Z,29.93
2018-09-04T14:12:48.526Z,32.23
2018-09-04T14:15:17.074Z,32.47
2018-09-04T14:17:45.599Z,32.13
2018-09-04T14:20:14.087Z,30.73
2018-09-04T14:22:43.594Z,32.20
2018-09-04T14:25:12.084Z,30.23
2018-09-04T14:27:40.550Z,30.83
2018-09-04T14:30:16.242Z,34.20
2018-09-04T14:32:37.559Z,35.57
2018-09-04T14:35:06.956Z,29.10
2018-09-04T14:37:35.458Z,32.23
2018-09-04T14:40:03.946Z,28.43
2018-09-04T14:42:32.499Z,29.07
2018-09-04T14:45:00.997Z,30.93
2018-09-04T14:47:29.469Z,28.73
2018-09-04T14:49:57.944Z,31.83
2018-09-04T14:52:26.427Z,27.93
2018-09-04T14:54:54.902Z,31.67
2018-09-04T14:57:23.369Z,28.63
2018-09-04T14:59:51.917Z,28.73
2018-09-04T15:02:20.487Z,30.70
2018-09-04T15:04:48.946Z,28.03
2018-09-04T15:07:17.439Z,29.27
2018-09-04T15:09:45.978Z,27.40
2018-09-04T15:12:14.448Z,30.93
2018-09-04T15:14:42.940Z,25.47
2018-09-04T15:17:11.386Z,23.50
2018-09-04T15:19:39.862Z,27.17
2018-09-04T15:22:08.303Z,30.97
2018-09-04T15:24:36.817Z,24.07
2018-09-04T15:27:05.286Z,23.70
2018-09-04T15:29:33.737Z,21.47
2018-09-04T15:32:02.319Z,25.97
2018-09-04T15:34:30.894Z,24.87
2018-09-04T15:36:59.469Z,24.93
2018-09-04T15:39:27.901Z,23.43
2018-09-04T15:41:56.391Z,24.50
2018-09-04T15:44:24.936Z,24.33
2018-09-04T15:46:53.424Z,25.17
2018-09-04T15:49:27.232Z,27.00
2018-09-04T15:51:55.734Z,28.27
2018-09-04T15:54:24.214Z,29.43
2018-09-04T15:56:52.778Z,25.33
2018-09-04T15:59:21.221Z,28.03
2018-09-04T16:01:49.707Z,24.27
2018-09-04T16:04:18.503Z,22.40
2018-09-04T16:06:46.967Z,23.57
2018-09-04T16:09:15.503Z,30.23
2018-09-04T16:11:44.026Z,30.57
2018-09-04T16:14:12.586Z,32.60
2018-09-04T16:16:41.161Z,26.90
2018-09-04T16:19:09.735Z,23.60
2018-09-04T16:21:38.225Z,21.40
2018-09-04T16:24:07.091Z,26.30
2018-09-04T16:26:35.533Z,25.47
2018-09-04T16:29:04.002Z,25.03
2018-09-04T16:31:32.491Z,25.73
2018-09-04T16:34:01.035Z,23.23
2018-09-04T16:36:29.551Z,23.57
2018-09-04T16:38:58.101Z,23.43
2018-09-04T16:41:26.611Z,24.27
2018-09-04T16:43:55.104Z,26.47
2018-09-04T16:46:23.602Z,26.13
2018-09-04T16:49:26.439Z,19.93
2018-09-04T16:51:56.358Z,25.47
2018-09-04T16:54:25.752Z,24.13
2018-09-04T16:56:54.279Z,24.70
2018-09-04T16:59:22.785Z,29.20
2018-09-04T17:01:51.265Z,26.53
2018-09-04T17:04:19.803Z,25.23
2018-09-04T17:06:48.321Z,23.10
2018-09-04T17:09:16.869Z,26.60
2018-09-04T17:11:45.349Z,27.60
2018-09-04T17:14:13.977Z,26.10
2018-09-04T17:16:42.522Z,23.83
2018-09-04T17:19:12.051Z,32.17
2018-09-04T17:21:40.731Z,40.60
2018-09-04T17:24:09.491Z,22.43
2018-09-04T17:26:38.123Z,26.93
2018-09-04T17:29:06.625Z,21.80
2018-09-04T17:31:35.267Z,27.43
2018-09-04T17:34:04.005Z,42.57
2018-09-04T17:36:32.804Z,23.27
2018-09-04T17:39:01.684Z,25.47
2018-09-04T17:41:31.013Z,21.73
2018-09-04T17:43:59.946Z,20.23
2018-09-04T17:46:28.799Z,22.53
2018-09-04T17:48:59.700Z,25.57
2018-09-04T17:51:28.701Z,26.57
2018-09-04T17:53:58.741Z,26.77
2018-09-04T17:56:28.252Z,23.17
2018-09-04T17:58:57.112Z,25.20
2018-09-04T18:01:26.034Z,27.63
2018-09-04T18:03:55.684Z,26.47
2018-09-04T18:06:25.482Z,26.53
2018-09-04T18:08:53.998Z,28.00
2018-09-04T18:11:22.532Z,23.93
2018-09-04T18:13:51.010Z,26.60
2018-09-04T18:16:19.461Z,29.73
2018-09-04T18:18:47.923Z,26.73
2018-09-04T18:21:16.460Z,28.53
2018-09-04T18:23:44.956Z,27.63
2018-09-04T18:26:13.434Z,30.40
2018-09-04T18:28:41.901Z,31.20
2018-09-04T18:31:10.529Z,29.83
2018-09-04T18:33:39.114Z,28.30
2018-09-04T18:36:07.585Z,29.63
2018-09-04T18:38:36.160Z,32.63
2018-09-04T18:41:04.637Z,28.07
2018-09-04T18:43:33.469Z,42.33
2018-09-04T18:46:01.958Z,32.00
2018-09-04T18:48:30.476Z,33.87
2018-09-04T18:50:58.966Z,34.37
2018-09-04T18:53:27.531Z,33.80
2018-09-04T18:55:55.989Z,35.17
2018-09-04T18:58:24.443Z,37.13
2018-09-04T19:00:52.891Z,33.67
2018-09-04T19:03:21.343Z,36.07
2018-09-04T19:05:49.803Z,38.63
2018-09-04T19:08:18.270Z,41.63
2018-09-04T19:10:46.722Z,37.33
2018-09-04T19:13:15.161Z,38.67
2018-09-04T19:15:44.377Z,36.20
2018-09-04T19:18:12.837Z,37.10
2018-09-04T19:20:41.333Z,35.27
2018-09-04T19:23:09.869Z,30.10
2018-09-04T19:25:38.365Z,37.07
2018-09-04T19:28:06.815Z,41.10
2018-09-04T19:30:35.278Z,33.93
2018-09-04T19:33:03.764Z,37.97
2018-09-04T19:35:32.220Z,39.00
2018-09-04T19:38:00.945Z,39.83
2018-09-04T19:40:29.420Z,38.53
2018-09-04T19:42:58.866Z,47.43
2018-09-04T19:45:27.335Z,37.37
2018-09-04T19:47:55.821Z,37.97
2018-09-04T19:50:24.322Z,43.57
2018-09-04T19:52:52.833Z,43.03
2018-09-04T19:55:21.412Z,40.00
2018-09-04T19:57:49.866Z,43.37
2018-09-04T20:00:18.317Z,45.70
2018-09-04T20:02:46.867Z,45.97
2018-09-04T20:05:15.328Z,45.67
2018-09-04T20:07:43.821Z,44.90
2018-09-04T20:10:12.571Z,44.90
2018-09-04T20:12:41.071Z,41.87
2018-09-04T20:15:09.598Z,41.70
2018-09-04T20:17:38.042Z,49.00
2018-09-04T20:20:06.637Z,45.63
2018-09-04T20:22:35.126Z,39.27
2018-09-04T20:25:03.688Z,48.17
2018-09-04T20:27:32.149Z,42.30
2018-09-04T20:30:00.581Z,44.73
2018-09-04T20:32:29.119Z,44.07
2018-09-04T20:34:57.542Z,51.40
2018-09-04T20:37:26.835Z,47.77
2018-09-04T20:39:55.306Z,46.50
2018-09-04T20:42:23.803Z,54.03
2018-09-04T20:44:52.511Z,45.67
2018-09-04T20:47:21.447Z,51.60
2018-09-04T20:49:49.977Z,47.70
2018-09-04T20:52:18.503Z,48.70
2018-09-04T20:54:47.366Z,49.73
2018-09-04T20:57:22.199Z,48.73
2018-09-04T21:00:03.741Z,48.33
2018-09-04T21:02:44.452Z,51.17
2018-09-04T21:05:24.467Z,50.77
2018-09-04T21:08:09.546Z,39.73
2018-09-04T21:10:38.795Z,46.27
2018-09-04T21:13:07.679Z,36.70
2018-09-04T21:15:36.234Z,45.17
2018-09-04T21:18:05.017Z,38.63
2018-09-04T21:20:33.736Z,41.50
2018-09-04T21:23:03.369Z,35.37
2018-09-04T21:25:31.897Z,38.73
2018-09-04T21:28:00.379Z,42.43
2018-09-04T21:30:28.993Z,35.77
2018-09-04T21:32:57.629Z,42.50
2018-09-04T21:35:26.270Z,39.33
2018-09-04T21:37:54.743Z,41.17
2018-09-04T21:40:23.213Z,41.13
2018-09-04T21:42:51.659Z,41.40
2018-09-04T21:45:20.110Z,43.70
2018-09-04T21:47:48.594Z,43.80
2018-09-04T21:50:17.010Z,47.23
2018-09-04T21:52:45.497Z,48.77
2018-09-04T21:55:15.097Z,50.87
2018-09-04T21:57:43.550Z,52.77
2018-09-04T22:00:12.083Z,52.17
2018-09-04T22:02:40.518Z,50.13
2018-09-04T22:05:08.983Z,50.63
2018-09-04T22:07:37.422Z,49.60
2018-09-04T22:10:05.877Z,56.50
2018-09-04T22:12:34.353Z,52.20
2018-09-04T22:15:02.791Z,52.67
2018-09-04T22:17:31.237Z,52.13
2018-09-04T22:19:59.709Z,56.40
2018-09-04T22:22:28.219Z,54.50
2018-09-04T22:24:56.653Z,55.53
2018-09-04T22:27:25.161Z,57.70
2018-09-04T22:29:53.600Z,49.57
2018-09-04T22:32:23.148Z,52.43
2018-09-04T22:34:51.585Z,50.53
2018-09-04T22:37:20.034Z,60.43
2018-09-04T22:39:48.501Z,53.77
2018-09-04T22:42:16.951Z,47.73
2018-09-04T22:44:45.431Z,54.70
2018-09-04T22:47:13.961Z,46.20
2018-09-04T22:49:47.653Z,51.93
2018-09-04T22:52:16.110Z,48.43
2018-09-04T22:54:44.578Z,53.97
2018-09-04T22:57:13.010Z,50.30
2018-09-04T22:59:41.500Z,44.87
2018-09-04T23:02:09.985Z,47.63
2018-09-04T23:04:38.451Z,46.60
2018-09-04T23:07:06.978Z,43.10
2018-09-04T23:09:35.390Z,46.90
2018-09-04T23:12:03.842Z,43.77
2018-09-04T23:14:32.390Z,45.00
2018-09-04T23:17:00.861Z,42.40
2018-09-04T23:19:29.306Z,45.87
2018-09-04T23:21:57.763Z,46.73
2018-09-04T23:24:26.261Z,44.20
2018-09-04T23:26:54.703Z,43.17
2018-09-04T23:29:23.123Z,50.77
2018-09-04T23:31:51.561Z,46.33
2018-09-04T23:34:19.987Z,49.23
2018-09-04T23:36:48.468Z,51.57
2018-09-04T23:39:16.929Z,46.53
2018-09-04T23:41:45.484Z,51.93
2018-09-04T23:44:13.992Z,52.87
2018-09-04T23:46:42.415Z,50.50
2018-09-04T23:49:10.876Z,50.03
2018-09-04T23:51:39.338Z,43.93
2018-09-04T23:54:07.855Z,49.33
2018-09-04T23:56:36.301Z,45.63
2018-09-04T23:59:04.854Z,51.07
